Terminal Aerodrome Forecast
Issued by NWS

Home | Current Version | Previous Version | Text Only | Print | Product List | Glossary On
Versions: 1 2 3 4 5 6 7 8 9 10 11 12 13 14 15 16 17 18
995
FTUS42 KMHX 262327
TAFISO
TAF
KISO 262327Z 2700/2724 00000KT P6SM SCT050
     FM270400 19005KT P6SM SKC
     FM271500 20010G15KT P6SM SKC
     FM271800 20015G20KT P6SM FEW040
     FM272300 19010KT P6SM SCT040
      AMD LTD TO CLD VIS AND WIND=

USA.gov is the U.S. government's official web portal to all federal, state and local government web resources and services.